sensor_id;sensor_type;location;lat;lon;timestamp;P1;durP1;ratioP1;P2;durP2;ratioP2
23617;SDS011;18207;32.078;34.818;2023-02-16T00:01:21;1.40;;;1.30;;
23617;SDS011;18207;32.078;34.818;2023-02-16T00:03:55;0.95;;;0.95;;
23617;SDS011;18207;32.078;34.818;2023-02-16T00:06:26;1.08;;;1.08;;
23617;SDS011;18207;32.078;34.818;2023-02-16T00:08:57;1.05;;;1.05;;
23617;SDS011;18207;32.078;34.818;2023-02-16T00:11:30;0.90;;;0.90;;
23617;SDS011;18207;32.078;34.818;2023-02-16T00:14:20;0.93;;;0.93;;
23617;SDS011;18207;32.078;34.818;2023-02-16T00:16:52;1.40;;;1.30;;
23617;SDS011;18207;32.078;34.818;2023-02-16T00:19:27;1.63;;;0.80;;
23617;SDS011;18207;32.078;34.818;2023-02-16T00:22:02;1.17;;;1.08;;
23617;SDS011;18207;32.078;34.818;2023-02-16T00:24:34;0.80;;;0.80;;
23617;SDS011;18207;32.078;34.818;2023-02-16T00:27:08;0.95;;;0.95;;
23617;SDS011;18207;32.078;34.818;2023-02-16T00:29:44;1.00;;;1.00;;
23617;SDS011;18207;32.078;34.818;2023-02-16T00:32:14;0.98;;;0.98;;
23617;SDS011;18207;32.078;34.818;2023-02-16T00:34:46;0.95;;;0.95;;
23617;SDS011;18207;32.078;34.818;2023-02-16T00:37:17;0.88;;;0.88;;
23617;SDS011;18207;32.078;34.818;2023-02-16T00:39:47;1.20;;;1.20;;
23617;SDS011;18207;32.078;34.818;2023-02-16T00:42:18;1.10;;;1.10;;
23617;SDS011;18207;32.078;34.818;2023-02-16T00:44:55;0.88;;;0.88;;
23617;SDS011;18207;32.078;34.818;2023-02-16T00:47:29;1.23;;;1.13;;
23617;SDS011;18207;32.078;34.818;2023-02-16T00:50:09;1.38;;;1.27;;
23617;SDS011;18207;32.078;34.818;2023-02-16T00:52:45;0.82;;;0.82;;
23617;SDS011;18207;32.078;34.818;2023-02-16T00:55:17;1.17;;;1.10;;
23617;SDS011;18207;32.078;34.818;2023-02-16T00:57:50;1.23;;;1.20;;
23617;SDS011;18207;32.078;34.818;2023-02-16T01:00:25;1.25;;;1.15;;
23617;SDS011;18207;32.078;34.818;2023-02-16T01:03:00;1.45;;;1.35;;
23617;SDS011;18207;32.078;34.818;2023-02-16T01:05:36;1.20;;;1.10;;
23617;SDS011;18207;32.078;34.818;2023-02-16T01:08:09;1.40;;;1.30;;
23617;SDS011;18207;32.078;34.818;2023-02-16T01:10:58;1.30;;;1.20;;
23617;SDS011;18207;32.078;34.818;2023-02-16T01:13:37;0.90;;;0.90;;
23617;SDS011;18207;32.078;34.818;2023-02-16T01:16:14;1.02;;;1.02;;
23617;SDS011;18207;32.078;34.818;2023-02-16T01:18:47;1.13;;;1.13;;
23617;SDS011;18207;32.078;34.818;2023-02-16T01:21:21;1.30;;;1.17;;
23617;SDS011;18207;32.078;34.818;2023-02-16T01:23:50;1.25;;;1.17;;
23617;SDS011;18207;32.078;34.818;2023-02-16T01:26:21;0.93;;;0.93;;
23617;SDS011;18207;32.078;34.818;2023-02-16T01:28:54;1.25;;;1.15;;
23617;SDS011;18207;32.078;34.818;2023-02-16T01:31:25;1.00;;;1.00;;
23617;SDS011;18207;32.078;34.818;2023-02-16T01:33:55;1.25;;;1.25;;
23617;SDS011;18207;32.078;34.818;2023-02-16T01:36:28;1.27;;;1.17;;
23617;SDS011;18207;32.078;34.818;2023-02-16T01:39:03;1.02;;;1.02;;
23617;SDS011;18207;32.078;34.818;2023-02-16T01:44:41;1.13;;;1.13;;
23617;SDS011;18207;32.078;34.818;2023-02-16T01:47:27;1.10;;;1.10;;
23617;SDS011;18207;32.078;34.818;2023-02-16T01:50:16;1.10;;;1.10;;
23617;SDS011;18207;32.078;34.818;2023-02-16T01:52:52;1.13;;;1.10;;
23617;SDS011;18207;32.078;34.818;2023-02-16T01:55:27;1.40;;;1.30;;
23617;SDS011;18207;32.078;34.818;2023-02-16T01:58:05;1.10;;;1.10;;
23617;SDS011;18207;32.078;34.818;2023-02-16T02:04:11;1.00;;;1.00;;
23617;SDS011;18207;32.078;34.818;2023-02-16T02:07:08;1.00;;;0.90;;
23617;SDS011;18207;32.078;34.818;2023-02-16T02:09:58;1.10;;;1.10;;
23617;SDS011;18207;32.078;34.818;2023-02-16T02:12:39;1.20;;;1.10;;
23617;SDS011;18207;32.078;34.818;2023-02-16T02:15:21;0.95;;;0.95;;
23617;SDS011;18207;32.078;34.818;2023-02-16T02:17:56;0.90;;;0.90;;
23617;SDS011;18207;32.078;34.818;2023-02-16T02:20:28;1.00;;;1.00;;
23617;SDS011;18207;32.078;34.818;2023-02-16T02:23:37;1.10;;;1.10;;
23617;SDS011;18207;32.078;34.818;2023-02-16T02:32:45;1.17;;;1.17;;
23617;SDS011;18207;32.078;34.818;2023-02-16T02:35:39;0.85;;;0.85;;
23617;SDS011;18207;32.078;34.818;2023-02-16T02:38:21;1.20;;;1.10;;
23617;SDS011;18207;32.078;34.818;2023-02-16T02:41:02;1.10;;;1.10;;
23617;SDS011;18207;32.078;34.818;2023-02-16T02:43:49;1.00;;;1.00;;
23617;SDS011;18207;32.078;34.818;2023-02-16T02:46:29;1.23;;;1.20;;
23617;SDS011;18207;32.078;34.818;2023-02-16T02:49:02;1.20;;;1.10;;
23617;SDS011;18207;32.078;34.818;2023-02-16T02:51:32;0.98;;;0.98;;
23617;SDS011;18207;32.078;34.818;2023-02-16T02:54:06;1.38;;;1.27;;
23617;SDS011;18207;32.078;34.818;2023-02-16T02:56:59;1.00;;;0.90;;
23617;SDS011;18207;32.078;34.818;2023-02-16T02:59:57;1.00;;;1.00;;
23617;SDS011;18207;32.078;34.818;2023-02-16T03:02:52;1.45;;;1.35;;
23617;SDS011;18207;32.078;34.818;2023-02-16T03:05:26;0.80;;;0.80;;
23617;SDS011;18207;32.078;34.818;2023-02-16T03:08:01;1.27;;;1.27;;
23617;SDS011;18207;32.078;34.818;2023-02-16T03:10:42;1.40;;;1.30;;
23617;SDS011;18207;32.078;34.818;2023-02-16T03:13:35;1.30;;;1.30;;
23617;SDS011;18207;32.078;34.818;2023-02-16T03:16:12;1.48;;;1.38;;
23617;SDS011;18207;32.078;34.818;2023-02-16T03:18:50;1.13;;;1.13;;
23617;SDS011;18207;32.078;34.818;2023-02-16T03:21:37;1.10;;;1.10;;
23617;SDS011;18207;32.078;34.818;2023-02-16T03:24:26;1.00;;;1.00;;
23617;SDS011;18207;32.078;34.818;2023-02-16T03:27:16;1.20;;;1.20;;
23617;SDS011;18207;32.078;34.818;2023-02-16T03:30:10;1.20;;;1.10;;
23617;SDS011;18207;32.078;34.818;2023-02-16T03:32:46;1.00;;;1.00;;
23617;SDS011;18207;32.078;34.818;2023-02-16T03:35:17;1.10;;;1.10;;
23617;SDS011;18207;32.078;34.818;2023-02-16T03:37:48;1.23;;;1.15;;
23617;SDS011;18207;32.078;34.818;2023-02-16T03:40:18;0.95;;;0.95;;
23617;SDS011;18207;32.078;34.818;2023-02-16T03:42:56;1.30;;;1.20;;
23617;SDS011;18207;32.078;34.818;2023-02-16T03:45:29;0.88;;;0.88;;
23617;SDS011;18207;32.078;34.818;2023-02-16T03:48:05;1.10;;;1.10;;
23617;SDS011;18207;32.078;34.818;2023-02-16T03:50:36;1.00;;;1.00;;
23617;SDS011;18207;32.078;34.818;2023-02-16T03:53:06;1.15;;;1.15;;
23617;SDS011;18207;32.078;34.818;2023-02-16T03:55:38;0.90;;;0.90;;
23617;SDS011;18207;32.078;34.818;2023-02-16T03:58:11;1.00;;;1.00;;
23617;SDS011;18207;32.078;34.818;2023-02-16T04:00:44;0.95;;;0.95;;
23617;SDS011;18207;32.078;34.818;2023-02-16T04:03:16;0.80;;;0.80;;
23617;SDS011;18207;32.078;34.818;2023-02-16T04:05:46;1.00;;;1.00;;
23617;SDS011;18207;32.078;34.818;2023-02-16T04:08:16;0.98;;;0.98;;
23617;SDS011;18207;32.078;34.818;2023-02-16T04:10:47;1.00;;;1.00;;
23617;SDS011;18207;32.078;34.818;2023-02-16T04:13:17;1.02;;;1.00;;
23617;SDS011;18207;32.078;34.818;2023-02-16T04:15:46;1.27;;;1.17;;
23617;SDS011;18207;32.078;34.818;2023-02-16T04:18:19;0.90;;;0.90;;
23617;SDS011;18207;32.078;34.818;2023-02-16T04:20:49;1.10;;;1.10;;
23617;SDS011;18207;32.078;34.818;2023-02-16T04:23:20;0.75;;;0.75;;
23617;SDS011;18207;32.078;34.818;2023-02-16T04:25:51;1.02;;;1.02;;
23617;SDS011;18207;32.078;34.818;2023-02-16T04:28:34;1.50;;;1.40;;
23617;SDS011;18207;32.078;34.818;2023-02-16T04:31:05;1.13;;;1.13;;
23617;SDS011;18207;32.078;34.818;2023-02-16T04:33:37;1.10;;;1.10;;
23617;SDS011;18207;32.078;34.818;2023-02-16T04:36:07;1.25;;;1.15;;
23617;SDS011;18207;32.078;34.818;2023-02-16T04:38:38;0.90;;;0.90;;
23617;SDS011;18207;32.078;34.818;2023-02-16T04:41:08;1.20;;;1.10;;
23617;SDS011;18207;32.078;34.818;2023-02-16T04:43:38;1.10;;;1.10;;
23617;SDS011;18207;32.078;34.818;2023-02-16T04:46:09;0.95;;;0.95;;
23617;SDS011;18207;32.078;34.818;2023-02-16T04:48:41;0.90;;;0.90;;
23617;SDS011;18207;32.078;34.818;2023-02-16T04:51:11;0.93;;;0.93;;
23617;SDS011;18207;32.078;34.818;2023-02-16T04:53:42;0.90;;;0.90;;
23617;SDS011;18207;32.078;34.818;2023-02-16T04:56:12;1.10;;;1.00;;
23617;SDS011;18207;32.078;34.818;2023-02-16T04:58:42;1.00;;;1.00;;
23617;SDS011;18207;32.078;34.818;2023-02-16T05:01:17;1.30;;;1.20;;
23617;SDS011;18207;32.078;34.818;2023-02-16T05:03:50;1.08;;;1.08;;
23617;SDS011;18207;32.078;34.818;2023-02-16T05:06:20;1.35;;;1.25;;
23617;SDS011;18207;32.078;34.818;2023-02-16T05:08:51;1.23;;;1.20;;
23617;SDS011;18207;32.078;34.818;2023-02-16T05:11:21;1.30;;;1.30;;
23617;SDS011;18207;32.078;34.818;2023-02-16T05:14:10;1.23;;;1.23;;
23617;SDS011;18207;32.078;34.818;2023-02-16T05:17:06;1.20;;;1.20;;
23617;SDS011;18207;32.078;34.818;2023-02-16T05:19:39;1.40;;;1.30;;
23617;SDS011;18207;32.078;34.818;2023-02-16T05:22:11;1.30;;;1.20;;
23617;SDS011;18207;32.078;34.818;2023-02-16T05:24:42;1.40;;;1.30;;
23617;SDS011;18207;32.078;34.818;2023-02-16T05:27:14;1.30;;;1.25;;
23617;SDS011;18207;32.078;34.818;2023-02-16T05:29:47;1.23;;;1.23;;
23617;SDS011;18207;32.078;34.818;2023-02-16T05:32:18;1.23;;;1.13;;
23617;SDS011;18207;32.078;34.818;2023-02-16T05:34:50;1.23;;;1.15;;
23617;SDS011;18207;32.078;34.818;2023-02-16T05:37:20;1.13;;;1.13;;
23617;SDS011;18207;32.078;34.818;2023-02-16T05:39:51;0.95;;;0.95;;
23617;SDS011;18207;32.078;34.818;2023-02-16T05:42:21;1.40;;;1.30;;
23617;SDS011;18207;32.078;34.818;2023-02-16T05:44:52;1.23;;;1.13;;
23617;SDS011;18207;32.078;34.818;2023-02-16T05:47:23;1.35;;;1.15;;
23617;SDS011;18207;32.078;34.818;2023-02-16T05:49:55;0.93;;;0.93;;
23617;SDS011;18207;32.078;34.818;2023-02-16T05:52:25;1.05;;;1.05;;
23617;SDS011;18207;32.078;34.818;2023-02-16T05:54:55;1.55;;;1.30;;
23617;SDS011;18207;32.078;34.818;2023-02-16T05:57:26;1.30;;;1.30;;
23617;SDS011;18207;32.078;34.818;2023-02-16T06:00:00;1.05;;;1.05;;
23617;SDS011;18207;32.078;34.818;2023-02-16T06:02:33;1.50;;;1.40;;
23617;SDS011;18207;32.078;34.818;2023-02-16T06:05:06;1.00;;;1.00;;
23617;SDS011;18207;32.078;34.818;2023-02-16T06:07:37;1.70;;;1.10;;
23617;SDS011;18207;32.078;34.818;2023-02-16T06:10:08;1.25;;;1.25;;
23617;SDS011;18207;32.078;34.818;2023-02-16T06:12:39;1.40;;;1.30;;
23617;SDS011;18207;32.078;34.818;2023-02-16T06:15:10;1.45;;;1.35;;
23617;SDS011;18207;32.078;34.818;2023-02-16T06:17:41;1.70;;;1.60;;
23617;SDS011;18207;32.078;34.818;2023-02-16T06:20:14;1.83;;;1.73;;
23617;SDS011;18207;32.078;34.818;2023-02-16T06:22:45;1.77;;;1.67;;
23617;SDS011;18207;32.078;34.818;2023-02-16T06:25:15;1.70;;;1.60;;
23617;SDS011;18207;32.078;34.818;2023-02-16T06:27:47;1.30;;;1.30;;
23617;SDS011;18207;32.078;34.818;2023-02-16T06:30:18;1.60;;;1.50;;
23617;SDS011;18207;32.078;34.818;2023-02-16T06:32:49;1.30;;;1.30;;
23617;SDS011;18207;32.078;34.818;2023-02-16T06:35:22;1.15;;;1.15;;
23617;SDS011;18207;32.078;34.818;2023-02-16T06:37:53;1.25;;;1.25;;
23617;SDS011;18207;32.078;34.818;2023-02-16T06:40:26;1.10;;;1.10;;
23617;SDS011;18207;32.078;34.818;2023-02-16T06:42:57;1.10;;;1.10;;
23617;SDS011;18207;32.078;34.818;2023-02-16T06:45:28;1.60;;;1.50;;
23617;SDS011;18207;32.078;34.818;2023-02-16T06:47:58;1.45;;;1.35;;
23617;SDS011;18207;32.078;34.818;2023-02-16T06:50:31;1.13;;;1.13;;
23617;SDS011;18207;32.078;34.818;2023-02-16T06:53:01;1.20;;;1.20;;
23617;SDS011;18207;32.078;34.818;2023-02-16T06:55:31;1.88;;;1.30;;
23617;SDS011;18207;32.078;34.818;2023-02-16T06:58:03;1.40;;;1.30;;
23617;SDS011;18207;32.078;34.818;2023-02-16T07:00:35;1.20;;;1.20;;
23617;SDS011;18207;32.078;34.818;2023-02-16T07:03:05;1.40;;;1.30;;
23617;SDS011;18207;32.078;34.818;2023-02-16T07:05:38;1.33;;;1.23;;
23617;SDS011;18207;32.078;34.818;2023-02-16T07:08:10;1.45;;;1.33;;
23617;SDS011;18207;32.078;34.818;2023-02-16T07:10:43;1.50;;;1.40;;
23617;SDS011;18207;32.078;34.818;2023-02-16T07:13:16;1.20;;;1.20;;
23617;SDS011;18207;32.078;34.818;2023-02-16T07:15:46;1.30;;;1.20;;
23617;SDS011;18207;32.078;34.818;2023-02-16T07:18:16;1.65;;;1.55;;
23617;SDS011;18207;32.078;34.818;2023-02-16T07:20:48;1.40;;;1.30;;
23617;SDS011;18207;32.078;34.818;2023-02-16T07:23:19;1.20;;;1.20;;
23617;SDS011;18207;32.078;34.818;2023-02-16T07:25:50;1.52;;;1.42;;
23617;SDS011;18207;32.078;34.818;2023-02-16T07:28:20;1.38;;;1.30;;
23617;SDS011;18207;32.078;34.818;2023-02-16T07:30:50;1.70;;;1.50;;
23617;SDS011;18207;32.078;34.818;2023-02-16T07:33:21;1.50;;;1.40;;
23617;SDS011;18207;32.078;34.818;2023-02-16T07:35:54;1.77;;;1.67;;
23617;SDS011;18207;32.078;34.818;2023-02-16T07:38:24;1.60;;;1.50;;
23617;SDS011;18207;32.078;34.818;2023-02-16T07:40:56;1.65;;;1.55;;
23617;SDS011;18207;32.078;34.818;2023-02-16T07:43:27;1.40;;;1.30;;
23617;SDS011;18207;32.078;34.818;2023-02-16T07:46:00;0.93;;;0.90;;
23617;SDS011;18207;32.078;34.818;2023-02-16T07:48:31;1.25;;;1.17;;
23617;SDS011;18207;32.078;34.818;2023-02-16T07:51:04;1.10;;;1.05;;
23617;SDS011;18207;32.078;34.818;2023-02-16T07:53:35;1.10;;;1.10;;
23617;SDS011;18207;32.078;34.818;2023-02-16T07:56:05;1.08;;;1.08;;
23617;SDS011;18207;32.078;34.818;2023-02-16T07:58:36;0.98;;;0.98;;
23617;SDS011;18207;32.078;34.818;2023-02-16T08:01:07;0.73;;;0.73;;
23617;SDS011;18207;32.078;34.818;2023-02-16T08:03:41;1.10;;;1.10;;
23617;SDS011;18207;32.078;34.818;2023-02-16T08:06:13;1.33;;;1.23;;
23617;SDS011;18207;32.078;34.818;2023-02-16T08:08:43;0.90;;;0.90;;
23617;SDS011;18207;32.078;34.818;2023-02-16T08:11:15;0.90;;;0.90;;
23617;SDS011;18207;32.078;34.818;2023-02-16T08:13:48;1.42;;;1.25;;
23617;SDS011;18207;32.078;34.818;2023-02-16T08:16:21;1.17;;;1.08;;
23617;SDS011;18207;32.078;34.818;2023-02-16T08:18:54;1.20;;;1.20;;
23617;SDS011;18207;32.078;34.818;2023-02-16T08:21:29;1.35;;;1.25;;
23617;SDS011;18207;32.078;34.818;2023-02-16T08:24:00;0.93;;;0.93;;
23617;SDS011;18207;32.078;34.818;2023-02-16T08:26:35;0.95;;;0.95;;
23617;SDS011;18207;32.078;34.818;2023-02-16T08:29:09;1.00;;;1.00;;
23617;SDS011;18207;32.078;34.818;2023-02-16T08:31:40;1.10;;;1.10;;
23617;SDS011;18207;32.078;34.818;2023-02-16T08:34:12;0.90;;;0.90;;
23617;SDS011;18207;32.078;34.818;2023-02-16T08:36:52;0.77;;;0.77;;
23617;SDS011;18207;32.078;34.818;2023-02-16T08:39:32;0.90;;;0.90;;
23617;SDS011;18207;32.078;34.818;2023-02-16T08:42:13;0.85;;;0.80;;
23617;SDS011;18207;32.078;34.818;2023-02-16T08:45:01;0.82;;;0.82;;
23617;SDS011;18207;32.078;34.818;2023-02-16T08:47:33;0.70;;;0.70;;
23617;SDS011;18207;32.078;34.818;2023-02-16T08:50:04;0.75;;;0.75;;
23617;SDS011;18207;32.078;34.818;2023-02-16T08:52:37;1.00;;;0.90;;
23617;SDS011;18207;32.078;34.818;2023-02-16T08:55:08;0.90;;;0.90;;
23617;SDS011;18207;32.078;34.818;2023-02-16T08:57:39;0.93;;;0.93;;
23617;SDS011;18207;32.078;34.818;2023-02-16T09:00:10;0.90;;;0.90;;
23617;SDS011;18207;32.078;34.818;2023-02-16T09:02:59;0.85;;;0.85;;
23617;SDS011;18207;32.078;34.818;2023-02-16T09:05:30;0.80;;;0.80;;
23617;SDS011;18207;32.078;34.818;2023-02-16T09:08:02;0.82;;;0.80;;
23617;SDS011;18207;32.078;34.818;2023-02-16T09:10:33;0.50;;;0.50;;
23617;SDS011;18207;32.078;34.818;2023-02-16T09:13:03;1.27;;;0.57;;
23617;SDS011;18207;32.078;34.818;2023-02-16T09:15:36;0.93;;;0.80;;
23617;SDS011;18207;32.078;34.818;2023-02-16T09:18:08;1.05;;;0.88;;
23617;SDS011;18207;32.078;34.818;2023-02-16T09:20:40;0.65;;;0.65;;
23617;SDS011;18207;32.078;34.818;2023-02-16T09:23:15;0.60;;;0.60;;
23617;SDS011;18207;32.078;34.818;2023-02-16T09:25:47;0.60;;;0.60;;
23617;SDS011;18207;32.078;34.818;2023-02-16T09:28:18;0.70;;;0.70;;
23617;SDS011;18207;32.078;34.818;2023-02-16T09:30:49;0.70;;;0.70;;
23617;SDS011;18207;32.078;34.818;2023-02-16T09:33:20;0.80;;;0.80;;
23617;SDS011;18207;32.078;34.818;2023-02-16T09:35:50;0.80;;;0.80;;
23617;SDS011;18207;32.078;34.818;2023-02-16T09:38:23;0.93;;;0.93;;
23617;SDS011;18207;32.078;34.818;2023-02-16T09:40:53;0.82;;;0.82;;
23617;SDS011;18207;32.078;34.818;2023-02-16T09:43:28;0.65;;;0.65;;
23617;SDS011;18207;32.078;34.818;2023-02-16T09:46:14;0.80;;;0.80;;
23617;SDS011;18207;32.078;34.818;2023-02-16T09:48:51;0.90;;;0.90;;
23617;SDS011;18207;32.078;34.818;2023-02-16T09:51:35;0.80;;;0.80;;
23617;SDS011;18207;32.078;34.818;2023-02-16T09:54:14;1.00;;;1.00;;
23617;SDS011;18207;32.078;34.818;2023-02-16T09:56:58;0.88;;;0.88;;
23617;SDS011;18207;32.078;34.818;2023-02-16T09:59:39;0.90;;;0.90;;
23617;SDS011;18207;32.078;34.818;2023-02-16T10:02:28;1.10;;;0.95;;
23617;SDS011;18207;32.078;34.818;2023-02-16T10:05:17;0.73;;;0.73;;
23617;SDS011;18207;32.078;34.818;2023-02-16T10:08:02;0.90;;;0.90;;
23617;SDS011;18207;32.078;34.818;2023-02-16T10:10:45;1.00;;;0.88;;
23617;SDS011;18207;32.078;34.818;2023-02-16T10:13:31;1.45;;;0.80;;
23617;SDS011;18207;32.078;34.818;2023-02-16T10:16:15;0.70;;;0.70;;
23617;SDS011;18207;32.078;34.818;2023-02-16T10:18:58;0.90;;;0.90;;
23617;SDS011;18207;32.078;34.818;2023-02-16T10:21:39;1.00;;;0.98;;
23617;SDS011;18207;32.078;34.818;2023-02-16T10:24:18;0.90;;;0.90;;
23617;SDS011;18207;32.078;34.818;2023-02-16T10:26:52;0.90;;;0.90;;
23617;SDS011;18207;32.078;34.818;2023-02-16T10:29:34;0.95;;;0.95;;
23617;SDS011;18207;32.078;34.818;2023-02-16T10:32:09;0.82;;;0.82;;
23617;SDS011;18207;32.078;34.818;2023-02-16T10:34:49;0.80;;;0.80;;
23617;SDS011;18207;32.078;34.818;2023-02-16T10:37:30;0.90;;;0.90;;
23617;SDS011;18207;32.078;34.818;2023-02-16T10:40:20;0.60;;;0.60;;
23617;SDS011;18207;32.078;34.818;2023-02-16T10:43:04;1.05;;;0.98;;
23617;SDS011;18207;32.078;34.818;2023-02-16T10:45:45;0.65;;;0.65;;
23617;SDS011;18207;32.078;34.818;2023-02-16T10:48:20;0.70;;;0.70;;
23617;SDS011;18207;32.078;34.818;2023-02-16T10:50:54;0.68;;;0.68;;
23617;SDS011;18207;32.078;34.818;2023-02-16T10:53:34;0.82;;;0.63;;
23617;SDS011;18207;32.078;34.818;2023-02-16T10:59:15;0.60;;;0.60;;
23617;SDS011;18207;32.078;34.818;2023-02-16T11:01:50;0.80;;;0.80;;
23617;SDS011;18207;32.078;34.818;2023-02-16T11:04:35;1.00;;;1.00;;
23617;SDS011;18207;32.078;34.818;2023-02-16T11:07:11;0.77;;;0.77;;
23617;SDS011;18207;32.078;34.818;2023-02-16T11:09:46;0.80;;;0.80;;
23617;SDS011;18207;32.078;34.818;2023-02-16T11:12:25;0.90;;;0.90;;
23617;SDS011;18207;32.078;34.818;2023-02-16T11:15:03;0.70;;;0.70;;
23617;SDS011;18207;32.078;34.818;2023-02-16T11:17:50;0.73;;;0.73;;
23617;SDS011;18207;32.078;34.818;2023-02-16T11:20:27;0.77;;;0.77;;
23617;SDS011;18207;32.078;34.818;2023-02-16T11:23:14;0.68;;;0.68;;
23617;SDS011;18207;32.078;34.818;2023-02-16T11:25:55;0.70;;;0.70;;
23617;SDS011;18207;32.078;34.818;2023-02-16T11:28:30;0.68;;;0.68;;
23617;SDS011;18207;32.078;34.818;2023-02-16T11:31:11;0.75;;;0.75;;
23617;SDS011;18207;32.078;34.818;2023-02-16T11:33:54;0.88;;;0.88;;
23617;SDS011;18207;32.078;34.818;2023-02-16T11:36:32;0.57;;;0.57;;
23617;SDS011;18207;32.078;34.818;2023-02-16T11:39:13;1.10;;;1.05;;
23617;SDS011;18207;32.078;34.818;2023-02-16T11:41:50;0.68;;;0.68;;
23617;SDS011;18207;32.078;34.818;2023-02-16T11:44:25;1.25;;;0.95;;
23617;SDS011;18207;32.078;34.818;2023-02-16T11:47:03;1.17;;;1.08;;
23617;SDS011;18207;32.078;34.818;2023-02-16T11:49:38;0.77;;;0.77;;
23617;SDS011;18207;32.078;34.818;2023-02-16T11:52:17;1.00;;;1.00;;
23617;SDS011;18207;32.078;34.818;2023-02-16T11:54:56;0.80;;;0.80;;
23617;SDS011;18207;32.078;34.818;2023-02-16T11:57:29;0.73;;;0.73;;
23617;SDS011;18207;32.078;34.818;2023-02-16T12:00:06;0.70;;;0.70;;
23617;SDS011;18207;32.078;34.818;2023-02-16T12:05:56;0.70;;;0.70;;
23617;SDS011;18207;32.078;34.818;2023-02-16T12:08:57;0.80;;;0.80;;
23617;SDS011;18207;32.078;34.818;2023-02-16T12:11:46;1.08;;;0.80;;
23617;SDS011;18207;32.078;34.818;2023-02-16T12:14:34;1.13;;;0.77;;
23617;SDS011;18207;32.078;34.818;2023-02-16T12:17:41;0.82;;;0.82;;
23617;SDS011;18207;32.078;34.818;2023-02-16T12:20:32;0.80;;;0.80;;
23617;SDS011;18207;32.078;34.818;2023-02-16T12:23:23;0.70;;;0.70;;
23617;SDS011;18207;32.078;34.818;2023-02-16T12:26:18;0.80;;;0.80;;
23617;SDS011;18207;32.078;34.818;2023-02-16T12:29:08;0.88;;;0.88;;
23617;SDS011;18207;32.078;34.818;2023-02-16T12:31:59;0.93;;;0.90;;
23617;SDS011;18207;32.078;34.818;2023-02-16T12:35:16;0.57;;;0.57;;
23617;SDS011;18207;32.078;34.818;2023-02-16T12:38:13;0.80;;;0.80;;
23617;SDS011;18207;32.078;34.818;2023-02-16T12:40:59;0.63;;;0.52;;
23617;SDS011;18207;32.078;34.818;2023-02-16T12:43:49;0.75;;;0.75;;
23617;SDS011;18207;32.078;34.818;2023-02-16T12:46:26;0.68;;;0.68;;
23617;SDS011;18207;32.078;34.818;2023-02-16T12:49:09;0.57;;;0.57;;
23617;SDS011;18207;32.078;34.818;2023-02-16T12:51:51;0.60;;;0.60;;
23617;SDS011;18207;32.078;34.818;2023-02-16T12:54:31;0.63;;;0.63;;
23617;SDS011;18207;32.078;34.818;2023-02-16T12:57:09;0.60;;;0.60;;
23617;SDS011;18207;32.078;34.818;2023-02-16T12:59:45;0.52;;;0.52;;
23617;SDS011;18207;32.078;34.818;2023-02-16T13:02:25;0.40;;;0.40;;
23617;SDS011;18207;32.078;34.818;2023-02-16T13:05:08;0.50;;;0.50;;
23617;SDS011;18207;32.078;34.818;2023-02-16T13:07:48;0.50;;;0.50;;
23617;SDS011;18207;32.078;34.818;2023-02-16T13:10:29;0.32;;;0.32;;
23617;SDS011;18207;32.078;34.818;2023-02-16T13:13:08;0.40;;;0.40;;
23617;SDS011;18207;32.078;34.818;2023-02-16T13:15:45;0.60;;;0.57;;
23617;SDS011;18207;32.078;34.818;2023-02-16T13:18:21;0.85;;;0.55;;
23617;SDS011;18207;32.078;34.818;2023-02-16T13:20:59;0.60;;;0.60;;
23617;SDS011;18207;32.078;34.818;2023-02-16T13:26:41;0.70;;;0.70;;
23617;SDS011;18207;32.078;34.818;2023-02-16T13:29:38;0.50;;;0.50;;
23617;SDS011;18207;32.078;34.818;2023-02-16T13:32:48;0.60;;;0.60;;
23617;SDS011;18207;32.078;34.818;2023-02-16T13:39:24;0.73;;;0.45;;
23617;SDS011;18207;32.078;34.818;2023-02-16T13:45:39;0.80;;;0.80;;
23617;SDS011;18207;32.078;34.818;2023-02-16T13:48:19;0.50;;;0.50;;
23617;SDS011;18207;32.078;34.818;2023-02-16T13:50:55;0.47;;;0.47;;
23617;SDS011;18207;32.078;34.818;2023-02-16T13:53:31;0.70;;;0.70;;
23617;SDS011;18207;32.078;34.818;2023-02-16T14:05:30;0.52;;;0.52;;
23617;SDS011;18207;32.078;34.818;2023-02-16T14:08:11;1.02;;;0.70;;
23617;SDS011;18207;32.078;34.818;2023-02-16T14:11:01;0.68;;;0.68;;
23617;SDS011;18207;32.078;34.818;2023-02-16T14:16:28;0.60;;;0.60;;
23617;SDS011;18207;32.078;34.818;2023-02-16T14:19:02;0.70;;;0.70;;
23617;SDS011;18207;32.078;34.818;2023-02-16T14:21:47;1.13;;;0.80;;
23617;SDS011;18207;32.078;34.818;2023-02-16T14:24:25;0.90;;;0.85;;
23617;SDS011;18207;32.078;34.818;2023-02-16T14:27:02;0.68;;;0.65;;
23617;SDS011;18207;32.078;34.818;2023-02-16T14:29:37;0.82;;;0.80;;
23617;SDS011;18207;32.078;34.818;2023-02-16T14:32:21;0.70;;;0.70;;
23617;SDS011;18207;32.078;34.818;2023-02-16T14:35:02;0.73;;;0.73;;
23617;SDS011;18207;32.078;34.818;2023-02-16T14:37:43;1.15;;;0.68;;
23617;SDS011;18207;32.078;34.818;2023-02-16T14:43:25;1.00;;;1.00;;
23617;SDS011;18207;32.078;34.818;2023-02-16T14:46:20;0.65;;;0.65;;
23617;SDS011;18207;32.078;34.818;2023-02-16T14:55:57;0.90;;;0.90;;
23617;SDS011;18207;32.078;34.818;2023-02-16T14:58:57;0.98;;;0.98;;
23617;SDS011;18207;32.078;34.818;2023-02-16T15:01:39;1.15;;;1.13;;
23617;SDS011;18207;32.078;34.818;2023-02-16T15:04:11;1.17;;;1.17;;
23617;SDS011;18207;32.078;34.818;2023-02-16T15:06:54;1.05;;;1.05;;
23617;SDS011;18207;32.078;34.818;2023-02-16T15:09:30;1.40;;;1.30;;
23617;SDS011;18207;32.078;34.818;2023-02-16T15:12:03;1.13;;;1.10;;
23617;SDS011;18207;32.078;34.818;2023-02-16T15:14:52;1.08;;;1.05;;
23617;SDS011;18207;32.078;34.818;2023-02-16T15:17:29;1.33;;;1.23;;
23617;SDS011;18207;32.078;34.818;2023-02-16T15:20:06;1.20;;;1.13;;
23617;SDS011;18207;32.078;34.818;2023-02-16T15:22:49;1.15;;;1.15;;
23617;SDS011;18207;32.078;34.818;2023-02-16T15:25:23;1.27;;;1.17;;
23617;SDS011;18207;32.078;34.818;2023-02-16T15:27:58;1.00;;;1.00;;
23617;SDS011;18207;32.078;34.818;2023-02-16T15:30:32;1.13;;;1.02;;
23617;SDS011;18207;32.078;34.818;2023-02-16T15:33:13;1.05;;;1.05;;
23617;SDS011;18207;32.078;34.818;2023-02-16T15:36:02;0.90;;;0.90;;
23617;SDS011;18207;32.078;34.818;2023-02-16T15:38:38;1.30;;;1.17;;
23617;SDS011;18207;32.078;34.818;2023-02-16T15:41:12;1.30;;;1.20;;
23617;SDS011;18207;32.078;34.818;2023-02-16T15:43:44;1.35;;;1.25;;
23617;SDS011;18207;32.078;34.818;2023-02-16T15:46:22;1.17;;;1.17;;
23617;SDS011;18207;32.078;34.818;2023-02-16T15:49:00;1.20;;;1.20;;
23617;SDS011;18207;32.078;34.818;2023-02-16T15:51:40;1.08;;;1.08;;
23617;SDS011;18207;32.078;34.818;2023-02-16T15:54:15;1.02;;;1.02;;
23617;SDS011;18207;32.078;34.818;2023-02-16T15:56:54;1.23;;;1.13;;
23617;SDS011;18207;32.078;34.818;2023-02-16T15:59:29;1.27;;;1.27;;
23617;SDS011;18207;32.078;34.818;2023-02-16T16:02:09;0.88;;;0.88;;
23617;SDS011;18207;32.078;34.818;2023-02-16T16:04:47;1.20;;;1.20;;
23617;SDS011;18207;32.078;34.818;2023-02-16T16:07:24;1.38;;;1.27;;
23617;SDS011;18207;32.078;34.818;2023-02-16T16:09:59;1.15;;;1.02;;
23617;SDS011;18207;32.078;34.818;2023-02-16T16:12:30;1.20;;;1.10;;
23617;SDS011;18207;32.078;34.818;2023-02-16T16:15:02;1.10;;;1.10;;
23617;SDS011;18207;32.078;34.818;2023-02-16T16:17:36;1.52;;;1.42;;
23617;SDS011;18207;32.078;34.818;2023-02-16T16:20:23;1.58;;;1.40;;
23617;SDS011;18207;32.078;34.818;2023-02-16T16:22:57;1.48;;;1.38;;